sensor_id;sensor_type;location;lat;lon;timestamp;P1;durP1;ratioP1;P2;durP2;ratioP2
13173;SDS011;6652;48.802;9.190;2023-05-10T00:00:10;1.38;;;1.00;;
13173;SDS011;6652;48.802;9.190;2023-05-10T00:02:38;5.25;;;1.00;;
13173;SDS011;6652;48.802;9.190;2023-05-10T00:05:05;2.17;;;1.38;;
13173;SDS011;6652;48.802;9.190;2023-05-10T00:07:33;3.67;;;1.02;;
13173;SDS011;6652;48.802;9.190;2023-05-10T00:09:59;4.93;;;1.27;;
13173;SDS011;6652;48.802;9.190;2023-05-10T00:12:26;2.60;;;1.30;;
13173;SDS011;6652;48.802;9.190;2023-05-10T00:14:53;3.85;;;1.00;;
13173;SDS011;6652;48.802;9.190;2023-05-10T00:17:21;4.28;;;1.10;;
13173;SDS011;6652;48.802;9.190;2023-05-10T00:19:48;6.97;;;0.95;;
13173;SDS011;6652;48.802;9.190;2023-05-10T00:22:14;3.13;;;0.80;;
13173;SDS011;6652;48.802;9.190;2023-05-10T00:24:41;2.33;;;0.50;;
13173;SDS011;6652;48.802;9.190;2023-05-10T00:27:08;1.25;;;0.57;;
13173;SDS011;6652;48.802;9.190;2023-05-10T00:29:35;0.20;;;0.20;;
13173;SDS011;6652;48.802;9.190;2023-05-10T00:32:01;0.50;;;0.38;;
13173;SDS011;6652;48.802;9.190;2023-05-10T00:34:30;0.50;;;0.50;;
13173;SDS011;6652;48.802;9.190;2023-05-10T00:36:56;2.38;;;0.20;;
13173;SDS011;6652;48.802;9.190;2023-05-10T00:39:23;0.20;;;0.10;;
13173;SDS011;6652;48.802;9.190;2023-05-10T00:41:51;0.30;;;0.10;;
13173;SDS011;6652;48.802;9.190;2023-05-10T00:44:18;1.73;;;0.20;;
13173;SDS011;6652;48.802;9.190;2023-05-10T00:46:44;0.20;;;0.20;;
13173;SDS011;6652;48.802;9.190;2023-05-10T00:49:12;1.05;;;0.30;;
13173;SDS011;6652;48.802;9.190;2023-05-10T00:51:40;0.93;;;0.22;;
13173;SDS011;6652;48.802;9.190;2023-05-10T00:54:07;0.13;;;0.10;;
13173;SDS011;6652;48.802;9.190;2023-05-10T00:56:35;1.05;;;0.30;;
13173;SDS011;6652;48.802;9.190;2023-05-10T00:59:02;0.30;;;0.30;;
13173;SDS011;6652;48.802;9.190;2023-05-10T01:01:30;0.10;;;0.10;;
13173;SDS011;6652;48.802;9.190;2023-05-10T01:03:57;2.05;;;0.25;;
13173;SDS011;6652;48.802;9.190;2023-05-10T01:06:25;0.35;;;0.10;;
13173;SDS011;6652;48.802;9.190;2023-05-10T01:08:54;3.42;;;0.40;;
13173;SDS011;6652;48.802;9.190;2023-05-10T01:11:21;1.98;;;0.30;;
13173;SDS011;6652;48.802;9.190;2023-05-10T01:13:50;1.40;;;0.20;;
13173;SDS011;6652;48.802;9.190;2023-05-10T01:16:21;1.45;;;0.20;;
13173;SDS011;6652;48.802;9.190;2023-05-10T01:18:48;0.47;;;0.30;;
13173;SDS011;6652;48.802;9.190;2023-05-10T01:21:19;0.63;;;0.28;;
13173;SDS011;6652;48.802;9.190;2023-05-10T01:27:07;2.45;;;0.20;;
13173;SDS011;6652;48.802;9.190;2023-05-10T01:30:01;1.90;;;0.20;;
13173;SDS011;6652;48.802;9.190;2023-05-10T01:32:41;1.10;;;0.38;;
13173;SDS011;6652;48.802;9.190;2023-05-10T01:35:15;2.28;;;0.30;;
13173;SDS011;6652;48.802;9.190;2023-05-10T01:37:50;1.08;;;0.30;;
13173;SDS011;6652;48.802;9.190;2023-05-10T01:40:26;0.20;;;0.20;;
13173;SDS011;6652;48.802;9.190;2023-05-10T01:42:59;5.35;;;0.77;;
13173;SDS011;6652;48.802;9.190;2023-05-10T01:45:30;1.10;;;0.40;;
13173;SDS011;6652;48.802;9.190;2023-05-10T01:48:04;0.38;;;0.30;;
13173;SDS011;6652;48.802;9.190;2023-05-10T01:50:32;0.22;;;0.20;;
13173;SDS011;6652;48.802;9.190;2023-05-10T01:53:01;2.38;;;0.30;;
13173;SDS011;6652;48.802;9.190;2023-05-10T01:55:30;1.50;;;0.30;;
13173;SDS011;6652;48.802;9.190;2023-05-10T01:58:02;3.72;;;0.50;;
13173;SDS011;6652;48.802;9.190;2023-05-10T02:00:31;0.20;;;0.20;;
13173;SDS011;6652;48.802;9.190;2023-05-10T02:02:59;0.88;;;0.20;;
13173;SDS011;6652;48.802;9.190;2023-05-10T02:05:31;0.35;;;0.13;;
13173;SDS011;6652;48.802;9.190;2023-05-10T02:07:59;0.32;;;0.32;;
13173;SDS011;6652;48.802;9.190;2023-05-10T02:10:29;0.90;;;0.40;;
13173;SDS011;6652;48.802;9.190;2023-05-10T02:12:58;2.72;;;0.40;;
13173;SDS011;6652;48.802;9.190;2023-05-10T02:15:26;2.05;;;0.40;;
13173;SDS011;6652;48.802;9.190;2023-05-10T02:17:54;0.75;;;0.30;;
13173;SDS011;6652;48.802;9.190;2023-05-10T02:20:24;0.30;;;0.30;;
13173;SDS011;6652;48.802;9.190;2023-05-10T02:22:52;0.30;;;0.30;;
13173;SDS011;6652;48.802;9.190;2023-05-10T02:25:22;0.30;;;0.30;;
13173;SDS011;6652;48.802;9.190;2023-05-10T02:27:51;0.93;;;0.22;;
13173;SDS011;6652;48.802;9.190;2023-05-10T02:30:20;0.40;;;0.40;;
13173;SDS011;6652;48.802;9.190;2023-05-10T02:32:48;1.88;;;0.30;;
13173;SDS011;6652;48.802;9.190;2023-05-10T02:35:16;6.15;;;0.40;;
13173;SDS011;6652;48.802;9.190;2023-05-10T02:37:44;0.40;;;0.40;;
13173;SDS011;6652;48.802;9.190;2023-05-10T02:40:12;1.30;;;0.20;;
13173;SDS011;6652;48.802;9.190;2023-05-10T02:42:42;2.67;;;0.30;;
13173;SDS011;6652;48.802;9.190;2023-05-10T02:45:11;0.20;;;0.20;;
13173;SDS011;6652;48.802;9.190;2023-05-10T02:47:41;0.28;;;0.10;;
13173;SDS011;6652;48.802;9.190;2023-05-10T02:50:08;0.38;;;0.20;;
13173;SDS011;6652;48.802;9.190;2023-05-10T02:52:39;3.63;;;0.30;;
13173;SDS011;6652;48.802;9.190;2023-05-10T02:55:09;1.85;;;0.30;;
13173;SDS011;6652;48.802;9.190;2023-05-10T02:57:41;1.67;;;0.40;;
13173;SDS011;6652;48.802;9.190;2023-05-10T03:00:11;1.90;;;0.30;;
13173;SDS011;6652;48.802;9.190;2023-05-10T03:02:38;1.65;;;0.28;;
13173;SDS011;6652;48.802;9.190;2023-05-10T03:05:05;2.92;;;0.30;;
13173;SDS011;6652;48.802;9.190;2023-05-10T03:07:32;3.63;;;0.30;;
13173;SDS011;6652;48.802;9.190;2023-05-10T03:09:59;1.08;;;0.50;;
13173;SDS011;6652;48.802;9.190;2023-05-10T03:12:31;0.20;;;0.20;;
13173;SDS011;6652;48.802;9.190;2023-05-10T03:15:08;2.38;;;0.30;;
13173;SDS011;6652;48.802;9.190;2023-05-10T03:17:41;4.30;;;0.50;;
13173;SDS011;6652;48.802;9.190;2023-05-10T03:20:15;0.38;;;0.38;;
13173;SDS011;6652;48.802;9.190;2023-05-10T03:22:47;1.67;;;0.70;;
13173;SDS011;6652;48.802;9.190;2023-05-10T03:25:18;3.67;;;0.65;;
13173;SDS011;6652;48.802;9.190;2023-05-10T03:27:48;3.50;;;0.45;;
13173;SDS011;6652;48.802;9.190;2023-05-10T03:30:15;0.43;;;0.43;;
13173;SDS011;6652;48.802;9.190;2023-05-10T03:32:44;0.65;;;0.47;;
13173;SDS011;6652;48.802;9.190;2023-05-10T03:35:11;5.10;;;0.98;;
13173;SDS011;6652;48.802;9.190;2023-05-10T03:37:39;2.38;;;0.80;;
13173;SDS011;6652;48.802;9.190;2023-05-10T03:40:06;3.08;;;0.55;;
13173;SDS011;6652;48.802;9.190;2023-05-10T03:42:34;2.47;;;0.70;;
13173;SDS011;6652;48.802;9.190;2023-05-10T03:45:02;2.08;;;0.70;;
13173;SDS011;6652;48.802;9.190;2023-05-10T03:47:29;1.77;;;0.52;;
13173;SDS011;6652;48.802;9.190;2023-05-10T03:49:56;3.10;;;0.70;;
13173;SDS011;6652;48.802;9.190;2023-05-10T03:52:23;1.85;;;0.70;;
13173;SDS011;6652;48.802;9.190;2023-05-10T03:54:50;2.25;;;0.60;;
13173;SDS011;6652;48.802;9.190;2023-05-10T03:57:17;1.35;;;0.52;;
13173;SDS011;6652;48.802;9.190;2023-05-10T03:59:43;0.65;;;0.65;;
13173;SDS011;6652;48.802;9.190;2023-05-10T04:02:12;4.03;;;0.70;;
13173;SDS011;6652;48.802;9.190;2023-05-10T04:04:38;5.57;;;0.60;;
13173;SDS011;6652;48.802;9.190;2023-05-10T04:07:05;0.52;;;0.45;;
13173;SDS011;6652;48.802;9.190;2023-05-10T04:09:32;0.60;;;0.60;;
13173;SDS011;6652;48.802;9.190;2023-05-10T04:11:59;3.97;;;0.60;;
13173;SDS011;6652;48.802;9.190;2023-05-10T04:14:27;11.18;;;1.65;;
13173;SDS011;6652;48.802;9.190;2023-05-10T04:16:54;0.45;;;0.45;;
13173;SDS011;6652;48.802;9.190;2023-05-10T04:19:22;1.20;;;0.70;;
13173;SDS011;6652;48.802;9.190;2023-05-10T04:21:49;6.43;;;0.85;;
13173;SDS011;6652;48.802;9.190;2023-05-10T04:24:16;2.05;;;0.95;;
13173;SDS011;6652;48.802;9.190;2023-05-10T04:26:43;2.45;;;0.70;;
13173;SDS011;6652;48.802;9.190;2023-05-10T04:29:10;3.92;;;0.77;;
13173;SDS011;6652;48.802;9.190;2023-05-10T04:31:37;4.15;;;1.05;;
13173;SDS011;6652;48.802;9.190;2023-05-10T04:34:04;4.90;;;1.45;;
13173;SDS011;6652;48.802;9.190;2023-05-10T04:36:32;2.63;;;1.00;;
13173;SDS011;6652;48.802;9.190;2023-05-10T04:39:00;3.88;;;0.80;;
13173;SDS011;6652;48.802;9.190;2023-05-10T04:41:37;2.15;;;0.77;;
13173;SDS011;6652;48.802;9.190;2023-05-10T04:44:04;1.50;;;0.75;;
13173;SDS011;6652;48.802;9.190;2023-05-10T04:46:31;1.50;;;0.65;;
13173;SDS011;6652;48.802;9.190;2023-05-10T04:48:58;4.90;;;1.00;;
13173;SDS011;6652;48.802;9.190;2023-05-10T04:51:24;11.63;;;1.23;;
13173;SDS011;6652;48.802;9.190;2023-05-10T04:53:52;2.17;;;1.20;;
13173;SDS011;6652;48.802;9.190;2023-05-10T04:56:20;2.33;;;0.80;;
13173;SDS011;6652;48.802;9.190;2023-05-10T04:58:47;4.03;;;1.25;;
13173;SDS011;6652;48.802;9.190;2023-05-10T05:01:14;3.53;;;1.20;;
13173;SDS011;6652;48.802;9.190;2023-05-10T05:03:41;3.33;;;0.90;;
13173;SDS011;6652;48.802;9.190;2023-05-10T05:06:20;6.47;;;1.35;;
13173;SDS011;6652;48.802;9.190;2023-05-10T05:08:46;7.63;;;1.08;;
13173;SDS011;6652;48.802;9.190;2023-05-10T05:11:15;6.28;;;1.45;;
13173;SDS011;6652;48.802;9.190;2023-05-10T05:13:43;4.82;;;1.35;;
13173;SDS011;6652;48.802;9.190;2023-05-10T05:16:10;5.78;;;1.00;;
13173;SDS011;6652;48.802;9.190;2023-05-10T05:18:37;6.40;;;0.95;;
13173;SDS011;6652;48.802;9.190;2023-05-10T05:21:12;5.60;;;0.93;;
13173;SDS011;6652;48.802;9.190;2023-05-10T05:23:41;3.05;;;0.75;;
13173;SDS011;6652;48.802;9.190;2023-05-10T05:26:07;8.07;;;1.05;;
13173;SDS011;6652;48.802;9.190;2023-05-10T05:28:38;4.40;;;0.85;;
13173;SDS011;6652;48.802;9.190;2023-05-10T05:31:05;2.53;;;1.13;;
13173;SDS011;6652;48.802;9.190;2023-05-10T05:33:32;4.88;;;0.70;;
13173;SDS011;6652;48.802;9.190;2023-05-10T05:36:01;2.60;;;0.70;;
13173;SDS011;6652;48.802;9.190;2023-05-10T05:38:44;1.73;;;0.65;;
13173;SDS011;6652;48.802;9.190;2023-05-10T05:41:16;1.98;;;0.68;;
13173;SDS011;6652;48.802;9.190;2023-05-10T05:43:45;6.07;;;1.27;;
13173;SDS011;6652;48.802;9.190;2023-05-10T05:46:12;2.70;;;0.65;;
13173;SDS011;6652;48.802;9.190;2023-05-10T05:48:39;1.60;;;0.80;;
13173;SDS011;6652;48.802;9.190;2023-05-10T05:51:06;3.30;;;1.30;;
13173;SDS011;6652;48.802;9.190;2023-05-10T05:53:47;3.17;;;1.20;;
13173;SDS011;6652;48.802;9.190;2023-05-10T05:56:14;2.35;;;0.82;;
13173;SDS011;6652;48.802;9.190;2023-05-10T05:58:42;2.05;;;0.93;;
13173;SDS011;6652;48.802;9.190;2023-05-10T06:01:11;4.03;;;1.23;;
13173;SDS011;6652;48.802;9.190;2023-05-10T06:03:38;2.83;;;0.80;;
13173;SDS011;6652;48.802;9.190;2023-05-10T06:06:09;2.95;;;0.68;;
13173;SDS011;6652;48.802;9.190;2023-05-10T06:08:36;3.40;;;1.08;;
13173;SDS011;6652;48.802;9.190;2023-05-10T06:11:03;0.73;;;0.70;;
13173;SDS011;6652;48.802;9.190;2023-05-10T06:13:30;5.13;;;1.00;;
13173;SDS011;6652;48.802;9.190;2023-05-10T06:16:00;3.80;;;0.80;;
13173;SDS011;6652;48.802;9.190;2023-05-10T06:18:29;1.40;;;0.90;;
13173;SDS011;6652;48.802;9.190;2023-05-10T06:20:56;3.53;;;0.85;;
13173;SDS011;6652;48.802;9.190;2023-05-10T06:23:23;2.45;;;0.77;;
13173;SDS011;6652;48.802;9.190;2023-05-10T06:25:51;1.75;;;0.82;;
13173;SDS011;6652;48.802;9.190;2023-05-10T06:28:18;5.13;;;0.90;;
13173;SDS011;6652;48.802;9.190;2023-05-10T06:30:46;3.72;;;1.00;;
13173;SDS011;6652;48.802;9.190;2023-05-10T06:33:13;2.38;;;0.80;;
13173;SDS011;6652;48.802;9.190;2023-05-10T06:35:42;2.20;;;0.60;;
13173;SDS011;6652;48.802;9.190;2023-05-10T06:38:09;3.30;;;0.88;;
13173;SDS011;6652;48.802;9.190;2023-05-10T06:40:36;2.88;;;0.85;;
13173;SDS011;6652;48.802;9.190;2023-05-10T06:43:07;1.75;;;0.70;;
13173;SDS011;6652;48.802;9.190;2023-05-10T06:45:33;6.90;;;1.63;;
13173;SDS011;6652;48.802;9.190;2023-05-10T06:48:01;6.93;;;1.10;;
13173;SDS011;6652;48.802;9.190;2023-05-10T06:50:28;3.60;;;1.05;;
13173;SDS011;6652;48.802;9.190;2023-05-10T06:52:57;1.75;;;1.45;;
13173;SDS011;6652;48.802;9.190;2023-05-10T06:55:24;4.28;;;0.95;;
13173;SDS011;6652;48.802;9.190;2023-05-10T06:57:51;4.07;;;1.50;;
13173;SDS011;6652;48.802;9.190;2023-05-10T07:00:18;5.20;;;1.15;;
13173;SDS011;6652;48.802;9.190;2023-05-10T07:02:45;1.67;;;0.90;;
13173;SDS011;6652;48.802;9.190;2023-05-10T07:05:13;3.83;;;1.00;;
13173;SDS011;6652;48.802;9.190;2023-05-10T07:07:40;2.35;;;1.10;;
13173;SDS011;6652;48.802;9.190;2023-05-10T07:10:09;3.95;;;1.20;;
13173;SDS011;6652;48.802;9.190;2023-05-10T07:12:36;5.50;;;1.17;;
13173;SDS011;6652;48.802;9.190;2023-05-10T07:15:04;1.63;;;1.17;;
13173;SDS011;6652;48.802;9.190;2023-05-10T07:17:31;3.35;;;1.05;;
13173;SDS011;6652;48.802;9.190;2023-05-10T07:19:59;1.10;;;0.88;;
13173;SDS011;6652;48.802;9.190;2023-05-10T07:22:26;7.32;;;1.10;;
13173;SDS011;6652;48.802;9.190;2023-05-10T07:24:54;4.22;;;0.90;;
13173;SDS011;6652;48.802;9.190;2023-05-10T07:27:23;6.78;;;1.27;;
13173;SDS011;6652;48.802;9.190;2023-05-10T07:29:50;5.13;;;1.23;;
13173;SDS011;6652;48.802;9.190;2023-05-10T07:32:17;1.50;;;1.25;;
13173;SDS011;6652;48.802;9.190;2023-05-10T07:34:47;1.75;;;0.75;;
13173;SDS011;6652;48.802;9.190;2023-05-10T07:37:14;3.92;;;1.15;;
13173;SDS011;6652;48.802;9.190;2023-05-10T07:39:41;1.58;;;0.95;;
13173;SDS011;6652;48.802;9.190;2023-05-10T07:42:08;1.88;;;1.20;;
13173;SDS011;6652;48.802;9.190;2023-05-10T07:44:37;1.88;;;1.13;;
13173;SDS011;6652;48.802;9.190;2023-05-10T07:47:04;3.67;;;1.13;;
13173;SDS011;6652;48.802;9.190;2023-05-10T07:49:31;2.78;;;1.60;;
13173;SDS011;6652;48.802;9.190;2023-05-10T07:51:59;4.03;;;1.60;;
13173;SDS011;6652;48.802;9.190;2023-05-10T07:54:26;2.50;;;1.13;;
13173;SDS011;6652;48.802;9.190;2023-05-10T07:56:53;2.65;;;1.30;;
13173;SDS011;6652;48.802;9.190;2023-05-10T07:59:20;3.45;;;1.20;;
13173;SDS011;6652;48.802;9.190;2023-05-10T08:01:52;4.32;;;1.13;;
13173;SDS011;6652;48.802;9.190;2023-05-10T08:04:19;1.38;;;1.27;;
13173;SDS011;6652;48.802;9.190;2023-05-10T08:06:47;5.13;;;0.80;;
13173;SDS011;6652;48.802;9.190;2023-05-10T08:09:14;1.33;;;0.75;;
13173;SDS011;6652;48.802;9.190;2023-05-10T08:11:42;2.38;;;1.10;;
13173;SDS011;6652;48.802;9.190;2023-05-10T08:14:10;4.80;;;1.15;;
13173;SDS011;6652;48.802;9.190;2023-05-10T08:16:37;1.48;;;0.77;;
13173;SDS011;6652;48.802;9.190;2023-05-10T08:19:06;7.63;;;0.73;;
13173;SDS011;6652;48.802;9.190;2023-05-10T08:21:36;2.55;;;0.60;;
13173;SDS011;6652;48.802;9.190;2023-05-10T08:24:03;2.85;;;0.70;;
13173;SDS011;6652;48.802;9.190;2023-05-10T08:26:32;7.95;;;1.00;;
13173;SDS011;6652;48.802;9.190;2023-05-10T08:29:01;5.75;;;1.10;;
13173;SDS011;6652;48.802;9.190;2023-05-10T08:31:28;3.25;;;0.85;;
13173;SDS011;6652;48.802;9.190;2023-05-10T08:34:05;1.58;;;0.75;;
13173;SDS011;6652;48.802;9.190;2023-05-10T08:36:48;1.88;;;0.70;;
13173;SDS011;6652;48.802;9.190;2023-05-10T08:39:29;1.77;;;0.80;;
13173;SDS011;6652;48.802;9.190;2023-05-10T08:42:06;3.47;;;0.73;;
13173;SDS011;6652;48.802;9.190;2023-05-10T08:44:49;1.75;;;0.52;;
13173;SDS011;6652;48.802;9.190;2023-05-10T08:47:18;5.68;;;0.60;;
13173;SDS011;6652;48.802;9.190;2023-05-10T08:49:47;2.67;;;0.57;;
13173;SDS011;6652;48.802;9.190;2023-05-10T08:52:16;1.00;;;0.50;;
13173;SDS011;6652;48.802;9.190;2023-05-10T08:54:44;2.30;;;0.57;;
13173;SDS011;6652;48.802;9.190;2023-05-10T08:57:11;0.30;;;0.30;;
13173;SDS011;6652;48.802;9.190;2023-05-10T08:59:38;0.60;;;0.50;;
13173;SDS011;6652;48.802;9.190;2023-05-10T09:02:05;0.75;;;0.60;;
13173;SDS011;6652;48.802;9.190;2023-05-10T09:04:34;2.65;;;0.50;;
13173;SDS011;6652;48.802;9.190;2023-05-10T09:07:03;2.40;;;0.40;;
13173;SDS011;6652;48.802;9.190;2023-05-10T09:09:29;4.25;;;1.00;;
13173;SDS011;6652;48.802;9.190;2023-05-10T09:11:57;2.92;;;0.70;;
13173;SDS011;6652;48.802;9.190;2023-05-10T09:14:24;0.20;;;0.20;;
13173;SDS011;6652;48.802;9.190;2023-05-10T09:16:51;1.45;;;0.50;;
13173;SDS011;6652;48.802;9.190;2023-05-10T09:19:20;1.02;;;0.50;;
13173;SDS011;6652;48.802;9.190;2023-05-10T09:21:46;2.25;;;0.60;;
13173;SDS011;6652;48.802;9.190;2023-05-10T09:24:16;4.13;;;0.52;;
13173;SDS011;6652;48.802;9.190;2023-05-10T09:26:46;2.55;;;0.63;;
13173;SDS011;6652;48.802;9.190;2023-05-10T09:29:14;5.05;;;0.85;;
13173;SDS011;6652;48.802;9.190;2023-05-10T09:31:45;7.72;;;0.40;;
13173;SDS011;6652;48.802;9.190;2023-05-10T09:34:16;2.00;;;0.47;;
13173;SDS011;6652;48.802;9.190;2023-05-10T09:36:50;3.42;;;1.35;;
13173;SDS011;6652;48.802;9.190;2023-05-10T09:39:19;4.57;;;1.20;;
13173;SDS011;6652;48.802;9.190;2023-05-10T09:41:47;3.92;;;0.90;;
13173;SDS011;6652;48.802;9.190;2023-05-10T09:44:16;1.65;;;0.40;;
13173;SDS011;6652;48.802;9.190;2023-05-10T09:46:48;1.30;;;0.43;;
13173;SDS011;6652;48.802;9.190;2023-05-10T09:49:17;2.90;;;0.57;;
13173;SDS011;6652;48.802;9.190;2023-05-10T09:51:44;7.85;;;3.20;;
13173;SDS011;6652;48.802;9.190;2023-05-10T09:54:11;9.95;;;3.55;;
13173;SDS011;6652;48.802;9.190;2023-05-10T09:56:41;2.78;;;0.60;;
13173;SDS011;6652;48.802;9.190;2023-05-10T09:59:09;3.40;;;0.60;;
13173;SDS011;6652;48.802;9.190;2023-05-10T10:01:37;1.67;;;0.60;;
13173;SDS011;6652;48.802;9.190;2023-05-10T10:04:04;6.80;;;0.70;;
13173;SDS011;6652;48.802;9.190;2023-05-10T10:06:35;4.22;;;0.70;;
13173;SDS011;6652;48.802;9.190;2023-05-10T10:09:03;10.93;;;0.85;;
13173;SDS011;6652;48.802;9.190;2023-05-10T10:11:30;2.78;;;0.80;;
13173;SDS011;6652;48.802;9.190;2023-05-10T10:13:59;1.15;;;0.52;;
13173;SDS011;6652;48.802;9.190;2023-05-10T10:16:26;1.20;;;0.50;;
13173;SDS011;6652;48.802;9.190;2023-05-10T10:18:54;6.28;;;0.60;;
13173;SDS011;6652;48.802;9.190;2023-05-10T10:21:21;1.17;;;0.82;;
13173;SDS011;6652;48.802;9.190;2023-05-10T10:23:48;1.63;;;0.70;;
13173;SDS011;6652;48.802;9.190;2023-05-10T10:26:15;3.08;;;0.55;;
13173;SDS011;6652;48.802;9.190;2023-05-10T10:28:46;1.02;;;0.60;;
13173;SDS011;6652;48.802;9.190;2023-05-10T10:31:23;3.20;;;0.70;;
13173;SDS011;6652;48.802;9.190;2023-05-10T10:33:59;4.30;;;0.70;;
13173;SDS011;6652;48.802;9.190;2023-05-10T10:36:29;5.03;;;0.50;;
13173;SDS011;6652;48.802;9.190;2023-05-10T10:38:58;1.35;;;0.60;;
13173;SDS011;6652;48.802;9.190;2023-05-10T10:41:30;6.35;;;1.02;;
13173;SDS011;6652;48.802;9.190;2023-05-10T10:47:05;6.38;;;0.85;;
13173;SDS011;6652;48.802;9.190;2023-05-10T10:50:04;0.20;;;0.20;;
13173;SDS011;6652;48.802;9.190;2023-05-10T10:52:33;3.97;;;0.60;;
13173;SDS011;6652;48.802;9.190;2023-05-10T10:55:01;2.78;;;0.80;;
13173;SDS011;6652;48.802;9.190;2023-05-10T10:57:35;3.97;;;0.60;;
13173;SDS011;6652;48.802;9.190;2023-05-10T11:00:23;0.60;;;0.60;;
13173;SDS011;6652;48.802;9.190;2023-05-10T11:02:53;4.55;;;0.82;;
13173;SDS011;6652;48.802;9.190;2023-05-10T11:08:11;8.85;;;1.52;;
13173;SDS011;6652;48.802;9.190;2023-05-10T11:10:49;2.15;;;0.60;;
13173;SDS011;6652;48.802;9.190;2023-05-10T11:13:21;5.10;;;0.52;;
13173;SDS011;6652;48.802;9.190;2023-05-10T11:15:55;2.03;;;0.70;;
13173;SDS011;6652;48.802;9.190;2023-05-10T11:18:26;3.90;;;0.50;;
13173;SDS011;6652;48.802;9.190;2023-05-10T11:20:56;1.85;;;0.50;;
13173;SDS011;6652;48.802;9.190;2023-05-10T11:23:28;0.82;;;0.40;;
13173;SDS011;6652;48.802;9.190;2023-05-10T11:25:56;1.25;;;0.73;;
13173;SDS011;6652;48.802;9.190;2023-05-10T11:28:23;4.07;;;0.70;;
13173;SDS011;6652;48.802;9.190;2023-05-10T11:30:51;1.40;;;0.70;;
13173;SDS011;6652;48.802;9.190;2023-05-10T11:33:19;3.08;;;0.57;;
13173;SDS011;6652;48.802;9.190;2023-05-10T11:35:47;2.20;;;0.55;;
13173;SDS011;6652;48.802;9.190;2023-05-10T11:38:14;5.75;;;0.52;;
13173;SDS011;6652;48.802;9.190;2023-05-10T11:40:41;1.42;;;0.73;;
13173;SDS011;6652;48.802;9.190;2023-05-10T11:43:09;3.30;;;0.47;;
13173;SDS011;6652;48.802;9.190;2023-05-10T11:45:37;4.32;;;0.60;;
13173;SDS011;6652;48.802;9.190;2023-05-10T11:48:05;4.00;;;0.60;;
13173;SDS011;6652;48.802;9.190;2023-05-10T11:50:33;2.15;;;0.85;;
13173;SDS011;6652;48.802;9.190;2023-05-10T11:53:04;2.72;;;1.17;;
13173;SDS011;6652;48.802;9.190;2023-05-10T11:55:32;2.30;;;0.73;;
13173;SDS011;6652;48.802;9.190;2023-05-10T11:58:00;4.50;;;0.82;;
13173;SDS011;6652;48.802;9.190;2023-05-10T12:00:28;3.80;;;1.02;;
13173;SDS011;6652;48.802;9.190;2023-05-10T12:02:56;5.32;;;1.17;;
13173;SDS011;6652;48.802;9.190;2023-05-10T12:05:23;3.60;;;1.20;;
13173;SDS011;6652;48.802;9.190;2023-05-10T12:07:50;6.32;;;1.20;;
13173;SDS011;6652;48.802;9.190;2023-05-10T12:10:25;6.65;;;1.23;;
13173;SDS011;6652;48.802;9.190;2023-05-10T12:12:52;3.83;;;1.33;;
13173;SDS011;6652;48.802;9.190;2023-05-10T12:15:20;4.10;;;0.82;;
13173;SDS011;6652;48.802;9.190;2023-05-10T12:17:48;2.00;;;0.80;;
13173;SDS011;6652;48.802;9.190;2023-05-10T12:20:16;7.03;;;0.70;;
13173;SDS011;6652;48.802;9.190;2023-05-10T12:22:45;6.07;;;1.70;;
13173;SDS011;6652;48.802;9.190;2023-05-10T12:25:13;7.22;;;1.00;;
13173;SDS011;6652;48.802;9.190;2023-05-10T12:27:42;6.57;;;1.10;;
13173;SDS011;6652;48.802;9.190;2023-05-10T12:30:18;4.57;;;0.85;;
13173;SDS011;6652;48.802;9.190;2023-05-10T12:32:46;3.67;;;0.90;;
13173;SDS011;6652;48.802;9.190;2023-05-10T12:35:12;3.63;;;0.70;;
13173;SDS011;6652;48.802;9.190;2023-05-10T12:37:39;1.92;;;1.10;;
13173;SDS011;6652;48.802;9.190;2023-05-10T12:40:07;3.13;;;0.52;;
13173;SDS011;6652;48.802;9.190;2023-05-10T12:42:35;3.05;;;0.70;;
13173;SDS011;6652;48.802;9.190;2023-05-10T12:45:05;5.28;;;0.90;;
13173;SDS011;6652;48.802;9.190;2023-05-10T12:47:34;4.97;;;0.98;;
13173;SDS011;6652;48.802;9.190;2023-05-10T12:50:01;3.90;;;1.33;;
13173;SDS011;6652;48.802;9.190;2023-05-10T12:52:28;11.18;;;0.90;;
13173;SDS011;6652;48.802;9.190;2023-05-10T12:54:56;8.05;;;1.52;;
13173;SDS011;6652;48.802;9.190;2023-05-10T12:57:23;3.85;;;1.08;;
13173;SDS011;6652;48.802;9.190;2023-05-10T12:59:50;8.80;;;1.77;;
13173;SDS011;6652;48.802;9.190;2023-05-10T13:02:18;2.20;;;0.70;;
13173;SDS011;6652;48.802;9.190;2023-05-10T13:04:46;6.30;;;1.17;;
13173;SDS011;6652;48.802;9.190;2023-05-10T13:07:13;3.83;;;0.98;;
13173;SDS011;6652;48.802;9.190;2023-05-10T13:09:40;5.68;;;1.00;;
13173;SDS011;6652;48.802;9.190;2023-05-10T13:12:07;4.20;;;1.27;;
13173;SDS011;6652;48.802;9.190;2023-05-10T13:14:33;3.88;;;0.90;;
13173;SDS011;6652;48.802;9.190;2023-05-10T13:17:00;10.73;;;1.08;;
13173;SDS011;6652;48.802;9.190;2023-05-10T13:19:28;6.18;;;1.10;;
13173;SDS011;6652;48.802;9.190;2023-05-10T13:21:55;1.00;;;0.70;;
13173;SDS011;6652;48.802;9.190;2023-05-10T13:24:23;5.05;;;0.90;;
13173;SDS011;6652;48.802;9.190;2023-05-10T13:26:49;5.53;;;1.00;;
13173;SDS011;6652;48.802;9.190;2023-05-10T13:29:16;4.68;;;1.15;;
13173;SDS011;6652;48.802;9.190;2023-05-10T13:31:48;4.93;;;1.08;;
13173;SDS011;6652;48.802;9.190;2023-05-10T13:34:15;8.95;;;1.17;;
13173;SDS011;6652;48.802;9.190;2023-05-10T13:36:46;5.18;;;1.00;;
13173;SDS011;6652;48.802;9.190;2023-05-10T13:39:14;4.57;;;0.90;;
13173;SDS011;6652;48.802;9.190;2023-05-10T13:41:40;3.42;;;1.00;;
13173;SDS011;6652;48.802;9.190;2023-05-10T13:44:08;3.72;;;1.35;;
13173;SDS011;6652;48.802;9.190;2023-05-10T13:46:35;5.03;;;1.08;;
13173;SDS011;6652;48.802;9.190;2023-05-10T13:49:03;6.90;;;1.63;;
13173;SDS011;6652;48.802;9.190;2023-05-10T13:51:30;3.80;;;1.02;;
13173;SDS011;6652;48.802;9.190;2023-05-10T13:53:59;1.52;;;0.60;;
13173;SDS011;6652;48.802;9.190;2023-05-10T13:56:25;5.63;;;0.70;;
13173;SDS011;6652;48.802;9.190;2023-05-10T13:58:52;2.17;;;0.98;;
13173;SDS011;6652;48.802;9.190;2023-05-10T14:01:19;3.17;;;0.73;;
13173;SDS011;6652;48.802;9.190;2023-05-10T14:03:46;5.40;;;0.80;;
13173;SDS011;6652;48.802;9.190;2023-05-10T14:06:13;3.13;;;0.63;;
13173;SDS011;6652;48.802;9.190;2023-05-10T14:08:40;6.43;;;0.90;;
13173;SDS011;6652;48.802;9.190;2023-05-10T14:11:08;4.22;;;0.70;;
13173;SDS011;6652;48.802;9.190;2023-05-10T14:13:35;3.58;;;0.65;;
13173;SDS011;6652;48.802;9.190;2023-05-10T14:16:01;3.65;;;0.70;;
13173;SDS011;6652;48.802;9.190;2023-05-10T14:18:28;2.58;;;0.50;;
13173;SDS011;6652;48.802;9.190;2023-05-10T14:20:55;4.80;;;0.80;;
13173;SDS011;6652;48.802;9.190;2023-05-10T14:23:22;4.05;;;0.75;;
13173;SDS011;6652;48.802;9.190;2023-05-10T14:25:50;2.30;;;0.77;;
13173;SDS011;6652;48.802;9.190;2023-05-10T14:28:19;4.68;;;0.70;;
13173;SDS011;6652;48.802;9.190;2023-05-10T14:30:47;5.70;;;0.80;;
13173;SDS011;6652;48.802;9.190;2023-05-10T14:33:16;3.78;;;0.75;;
13173;SDS011;6652;48.802;9.190;2023-05-10T14:35:43;1.45;;;0.50;;
13173;SDS011;6652;48.802;9.190;2023-05-10T14:38:11;4.82;;;0.63;;
13173;SDS011;6652;48.802;9.190;2023-05-10T14:40:38;1.95;;;0.55;;
13173;SDS011;6652;48.802;9.190;2023-05-10T14:43:05;3.10;;;0.75;;
13173;SDS011;6652;48.802;9.190;2023-05-10T14:45:33;7.40;;;0.73;;
13173;SDS011;6652;48.802;9.190;2023-05-10T14:48:00;2.15;;;0.55;;
13173;SDS011;6652;48.802;9.190;2023-05-10T14:50:29;2.05;;;0.60;;
13173;SDS011;6652;48.802;9.190;2023-05-10T14:52:56;3.60;;;1.08;;
13173;SDS011;6652;48.802;9.190;2023-05-10T14:55:23;1.48;;;0.60;;
13173;SDS011;6652;48.802;9.190;2023-05-10T14:57:50;1.55;;;0.63;;
13173;SDS011;6652;48.802;9.190;2023-05-10T15:00:17;1.05;;;0.50;;
13173;SDS011;6652;48.802;9.190;2023-05-10T15:02:46;2.13;;;1.05;;
13173;SDS011;6652;48.802;9.190;2023-05-10T15:05:13;5.47;;;0.80;;
13173;SDS011;6652;48.802;9.190;2023-05-10T15:07:40;1.85;;;0.45;;
13173;SDS011;6652;48.802;9.190;2023-05-10T15:10:09;3.33;;;1.40;;
13173;SDS011;6652;48.802;9.190;2023-05-10T15:12:37;1.30;;;0.43;;
13173;SDS011;6652;48.802;9.190;2023-05-10T15:15:06;3.42;;;0.40;;
13173;SDS011;6652;48.802;9.190;2023-05-10T15:17:33;6.10;;;1.38;;